sensor_id;sensor_type;location;lat;lon;timestamp;temperature;humidity
19017;DHT22;9641;51.494;6.670;2024-02-14T00:00:43;8.70;99.90
19017;DHT22;9641;51.494;6.670;2024-02-14T00:03:10;8.70;99.90
19017;DHT22;9641;51.494;6.670;2024-02-14T00:05:37;8.70;99.90
19017;DHT22;9641;51.494;6.670;2024-02-14T00:08:08;8.60;99.90
19017;DHT22;9641;51.494;6.670;2024-02-14T00:10:35;8.60;99.90
19017;DHT22;9641;51.494;6.670;2024-02-14T00:13:02;8.60;99.90
19017;DHT22;9641;51.494;6.670;2024-02-14T00:15:29;8.60;99.90
19017;DHT22;9641;51.494;6.670;2024-02-14T00:17:56;8.60;99.90
19017;DHT22;9641;51.494;6.670;2024-02-14T00:20:23;8.60;99.90
19017;DHT22;9641;51.494;6.670;2024-02-14T00:22:50;8.60;99.90
19017;DHT22;9641;51.494;6.670;2024-02-14T00:25:18;8.60;99.90
19017;DHT22;9641;51.494;6.670;2024-02-14T00:27:45;8.60;99.90
19017;DHT22;9641;51.494;6.670;2024-02-14T00:30:13;8.60;99.90
19017;DHT22;9641;51.494;6.670;2024-02-14T00:32:40;8.60;99.90
19017;DHT22;9641;51.494;6.670;2024-02-14T00:35:07;8.60;99.90
19017;DHT22;9641;51.494;6.670;2024-02-14T00:37:34;8.70;99.90
19017;DHT22;9641;51.494;6.670;2024-02-14T00:40:01;8.70;99.90
19017;DHT22;9641;51.494;6.670;2024-02-14T00:42:29;8.70;99.90
19017;DHT22;9641;51.494;6.670;2024-02-14T00:44:56;8.80;99.90
19017;DHT22;9641;51.494;6.670;2024-02-14T00:47:23;8.70;99.90
19017;DHT22;9641;51.494;6.670;2024-02-14T00:49:50;8.70;99.90
19017;DHT22;9641;51.494;6.670;2024-02-14T00:52:17;8.70;99.90
19017;DHT22;9641;51.494;6.670;2024-02-14T00:54:44;8.70;99.90
19017;DHT22;9641;51.494;6.670;2024-02-14T00:57:10;8.70;99.90
19017;DHT22;9641;51.494;6.670;2024-02-14T00:59:39;8.80;99.90
19017;DHT22;9641;51.494;6.670;2024-02-14T01:02:06;8.80;99.90
19017;DHT22;9641;51.494;6.670;2024-02-14T01:04:33;8.80;99.90
19017;DHT22;9641;51.494;6.670;2024-02-14T01:07:01;8.80;99.90
19017;DHT22;9641;51.494;6.670;2024-02-14T01:09:28;8.90;99.90
19017;DHT22;9641;51.494;6.670;2024-02-14T01:11:55;8.90;99.90
19017;DHT22;9641;51.494;6.670;2024-02-14T01:14:22;8.90;99.90
19017;DHT22;9641;51.494;6.670;2024-02-14T01:16:50;8.90;99.90
19017;DHT22;9641;51.494;6.670;2024-02-14T01:19:18;9.00;99.90
19017;DHT22;9641;51.494;6.670;2024-02-14T01:21:45;9.00;99.90
19017;DHT22;9641;51.494;6.670;2024-02-14T01:24:13;9.00;99.90
19017;DHT22;9641;51.494;6.670;2024-02-14T01:26:40;9.00;99.90
19017;DHT22;9641;51.494;6.670;2024-02-14T01:29:07;9.00;99.90
19017;DHT22;9641;51.494;6.670;2024-02-14T01:31:35;9.00;99.90
19017;DHT22;9641;51.494;6.670;2024-02-14T01:34:03;9.10;99.90
19017;DHT22;9641;51.494;6.670;2024-02-14T01:36:30;9.10;99.90
19017;DHT22;9641;51.494;6.670;2024-02-14T01:38:56;9.10;99.90
19017;DHT22;9641;51.494;6.670;2024-02-14T01:41:23;9.10;99.90
19017;DHT22;9641;51.494;6.670;2024-02-14T01:43:50;9.20;99.90
19017;DHT22;9641;51.494;6.670;2024-02-14T01:46:18;9.20;99.90
19017;DHT22;9641;51.494;6.670;2024-02-14T01:48:45;9.20;99.90
19017;DHT22;9641;51.494;6.670;2024-02-14T01:51:18;9.20;99.90
19017;DHT22;9641;51.494;6.670;2024-02-14T01:53:47;9.20;99.90
19017;DHT22;9641;51.494;6.670;2024-02-14T01:56:14;9.20;99.90
19017;DHT22;9641;51.494;6.670;2024-02-14T01:58:42;9.30;99.90
19017;DHT22;9641;51.494;6.670;2024-02-14T02:01:09;9.30;99.90
19017;DHT22;9641;51.494;6.670;2024-02-14T02:03:37;9.30;99.90
19017;DHT22;9641;51.494;6.670;2024-02-14T02:06:05;9.30;99.90
19017;DHT22;9641;51.494;6.670;2024-02-14T02:08:33;9.30;99.90
19017;DHT22;9641;51.494;6.670;2024-02-14T02:11:01;9.40;99.90
19017;DHT22;9641;51.494;6.670;2024-02-14T02:13:28;9.50;99.90
19017;DHT22;9641;51.494;6.670;2024-02-14T02:15:55;9.50;99.90
19017;DHT22;9641;51.494;6.670;2024-02-14T02:18:22;9.60;99.90
19017;DHT22;9641;51.494;6.670;2024-02-14T02:20:51;9.60;99.90
19017;DHT22;9641;51.494;6.670;2024-02-14T02:23:19;9.60;99.90
19017;DHT22;9641;51.494;6.670;2024-02-14T02:25:47;9.70;99.90
19017;DHT22;9641;51.494;6.670;2024-02-14T02:28:14;9.70;99.90
19017;DHT22;9641;51.494;6.670;2024-02-14T02:30:41;9.80;99.90
19017;DHT22;9641;51.494;6.670;2024-02-14T02:33:07;9.80;99.90
19017;DHT22;9641;51.494;6.670;2024-02-14T02:35:35;9.80;99.90
19017;DHT22;9641;51.494;6.670;2024-02-14T02:38:01;9.80;99.90
19017;DHT22;9641;51.494;6.670;2024-02-14T02:40:30;9.90;99.90
19017;DHT22;9641;51.494;6.670;2024-02-14T02:42:57;9.90;99.90
19017;DHT22;9641;51.494;6.670;2024-02-14T02:45:24;9.90;99.90
19017;DHT22;9641;51.494;6.670;2024-02-14T02:47:51;9.90;99.90
19017;DHT22;9641;51.494;6.670;2024-02-14T02:50:18;9.90;99.90
19017;DHT22;9641;51.494;6.670;2024-02-14T02:52:45;10.00;99.90
19017;DHT22;9641;51.494;6.670;2024-02-14T02:55:12;10.00;99.90
19017;DHT22;9641;51.494;6.670;2024-02-14T02:57:42;10.00;99.90
19017;DHT22;9641;51.494;6.670;2024-02-14T03:00:12;10.00;99.90
19017;DHT22;9641;51.494;6.670;2024-02-14T03:02:39;10.00;99.90
19017;DHT22;9641;51.494;6.670;2024-02-14T03:05:09;10.00;99.90
19017;DHT22;9641;51.494;6.670;2024-02-14T03:07:43;10.00;99.90
19017;DHT22;9641;51.494;6.670;2024-02-14T03:10:11;10.00;99.90
19017;DHT22;9641;51.494;6.670;2024-02-14T03:12:39;10.00;99.90
19017;DHT22;9641;51.494;6.670;2024-02-14T03:15:08;10.00;99.90
19017;DHT22;9641;51.494;6.670;2024-02-14T03:17:36;10.00;99.90
19017;DHT22;9641;51.494;6.670;2024-02-14T03:20:03;10.00;99.90
19017;DHT22;9641;51.494;6.670;2024-02-14T03:22:35;9.80;99.90
19017;DHT22;9641;51.494;6.670;2024-02-14T03:25:02;9.70;99.90
19017;DHT22;9641;51.494;6.670;2024-02-14T03:27:29;9.60;99.90
19017;DHT22;9641;51.494;6.670;2024-02-14T03:29:56;9.60;99.90
19017;DHT22;9641;51.494;6.670;2024-02-14T03:32:26;9.60;99.90
19017;DHT22;9641;51.494;6.670;2024-02-14T03:34:53;9.60;99.90
19017;DHT22;9641;51.494;6.670;2024-02-14T03:37:20;9.60;99.90
19017;DHT22;9641;51.494;6.670;2024-02-14T03:39:47;9.60;99.90
19017;DHT22;9641;51.494;6.670;2024-02-14T03:42:13;9.60;99.90
19017;DHT22;9641;51.494;6.670;2024-02-14T03:44:41;9.60;99.90
19017;DHT22;9641;51.494;6.670;2024-02-14T03:47:08;9.70;99.90
19017;DHT22;9641;51.494;6.670;2024-02-14T03:49:36;9.70;99.90
19017;DHT22;9641;51.494;6.670;2024-02-14T03:52:03;9.70;99.90
19017;DHT22;9641;51.494;6.670;2024-02-14T03:54:34;9.70;99.90
19017;DHT22;9641;51.494;6.670;2024-02-14T03:57:01;9.80;99.90
19017;DHT22;9641;51.494;6.670;2024-02-14T03:59:28;9.80;99.90
19017;DHT22;9641;51.494;6.670;2024-02-14T04:01:54;9.80;99.90
19017;DHT22;9641;51.494;6.670;2024-02-14T04:04:23;9.80;99.90
19017;DHT22;9641;51.494;6.670;2024-02-14T04:06:52;9.80;99.90
19017;DHT22;9641;51.494;6.670;2024-02-14T04:09:19;9.80;99.90
19017;DHT22;9641;51.494;6.670;2024-02-14T04:11:45;9.80;99.90
19017;DHT22;9641;51.494;6.670;2024-02-14T04:14:13;9.90;99.90
19017;DHT22;9641;51.494;6.670;2024-02-14T04:16:40;9.90;99.90
19017;DHT22;9641;51.494;6.670;2024-02-14T04:19:07;9.90;99.90
19017;DHT22;9641;51.494;6.670;2024-02-14T04:21:36;9.90;99.90
19017;DHT22;9641;51.494;6.670;2024-02-14T04:24:05;10.00;99.90
19017;DHT22;9641;51.494;6.670;2024-02-14T04:26:33;10.00;99.90
19017;DHT22;9641;51.494;6.670;2024-02-14T04:29:00;10.00;99.90
19017;DHT22;9641;51.494;6.670;2024-02-14T04:31:28;10.00;99.90
19017;DHT22;9641;51.494;6.670;2024-02-14T04:33:55;10.00;99.90
19017;DHT22;9641;51.494;6.670;2024-02-14T04:36:22;10.00;99.90
19017;DHT22;9641;51.494;6.670;2024-02-14T04:38:49;10.00;99.90
19017;DHT22;9641;51.494;6.670;2024-02-14T04:41:18;10.00;99.90
19017;DHT22;9641;51.494;6.670;2024-02-14T04:43:46;10.00;99.90
19017;DHT22;9641;51.494;6.670;2024-02-14T04:46:13;10.10;99.90
19017;DHT22;9641;51.494;6.670;2024-02-14T04:48:40;10.10;99.90
19017;DHT22;9641;51.494;6.670;2024-02-14T04:51:08;10.10;99.90
19017;DHT22;9641;51.494;6.670;2024-02-14T04:53:34;10.00;99.90
19017;DHT22;9641;51.494;6.670;2024-02-14T04:56:01;10.10;99.90
19017;DHT22;9641;51.494;6.670;2024-02-14T04:58:30;10.00;99.90
19017;DHT22;9641;51.494;6.670;2024-02-14T05:00:56;10.10;99.90
19017;DHT22;9641;51.494;6.670;2024-02-14T05:03:23;10.10;99.90
19017;DHT22;9641;51.494;6.670;2024-02-14T05:05:52;10.10;99.90
19017;DHT22;9641;51.494;6.670;2024-02-14T05:08:18;10.10;99.90
19017;DHT22;9641;51.494;6.670;2024-02-14T05:10:46;10.20;99.90
19017;DHT22;9641;51.494;6.670;2024-02-14T05:13:13;10.20;99.90
19017;DHT22;9641;51.494;6.670;2024-02-14T05:15:42;10.10;99.90
19017;DHT22;9641;51.494;6.670;2024-02-14T05:18:09;10.10;99.90
19017;DHT22;9641;51.494;6.670;2024-02-14T05:20:36;10.20;99.90
19017;DHT22;9641;51.494;6.670;2024-02-14T05:23:03;10.10;99.90
19017;DHT22;9641;51.494;6.670;2024-02-14T05:25:30;10.10;99.90
19017;DHT22;9641;51.494;6.670;2024-02-14T05:27:58;10.10;99.90
19017;DHT22;9641;51.494;6.670;2024-02-14T05:30:26;10.10;99.90
19017;DHT22;9641;51.494;6.670;2024-02-14T05:32:54;10.10;99.90
19017;DHT22;9641;51.494;6.670;2024-02-14T05:35:22;10.10;99.90
19017;DHT22;9641;51.494;6.670;2024-02-14T05:37:49;10.10;99.90
19017;DHT22;9641;51.494;6.670;2024-02-14T05:40:17;10.10;99.90
19017;DHT22;9641;51.494;6.670;2024-02-14T05:42:44;10.10;99.90
19017;DHT22;9641;51.494;6.670;2024-02-14T05:45:11;10.10;99.90
19017;DHT22;9641;51.494;6.670;2024-02-14T05:47:38;10.00;99.90
19017;DHT22;9641;51.494;6.670;2024-02-14T05:50:07;10.00;99.90
19017;DHT22;9641;51.494;6.670;2024-02-14T05:52:37;10.00;99.90
19017;DHT22;9641;51.494;6.670;2024-02-14T05:55:04;10.00;99.90
19017;DHT22;9641;51.494;6.670;2024-02-14T05:57:31;10.00;99.90
19017;DHT22;9641;51.494;6.670;2024-02-14T05:59:58;10.00;99.90
19017;DHT22;9641;51.494;6.670;2024-02-14T06:02:25;10.00;99.90
19017;DHT22;9641;51.494;6.670;2024-02-14T06:04:51;10.00;99.90
19017;DHT22;9641;51.494;6.670;2024-02-14T06:07:20;10.00;99.90
19017;DHT22;9641;51.494;6.670;2024-02-14T06:09:46;10.10;99.90
19017;DHT22;9641;51.494;6.670;2024-02-14T06:12:13;10.10;99.90
19017;DHT22;9641;51.494;6.670;2024-02-14T06:14:40;10.10;99.90
19017;DHT22;9641;51.494;6.670;2024-02-14T06:17:07;10.00;99.90
19017;DHT22;9641;51.494;6.670;2024-02-14T06:19:33;10.00;99.90
19017;DHT22;9641;51.494;6.670;2024-02-14T06:22:02;9.90;99.90
19017;DHT22;9641;51.494;6.670;2024-02-14T06:24:30;9.90;99.90
19017;DHT22;9641;51.494;6.670;2024-02-14T06:26:57;9.90;99.90
19017;DHT22;9641;51.494;6.670;2024-02-14T06:29:24;9.90;99.90
19017;DHT22;9641;51.494;6.670;2024-02-14T06:31:51;9.80;99.90
19017;DHT22;9641;51.494;6.670;2024-02-14T06:34:19;9.90;99.90
19017;DHT22;9641;51.494;6.670;2024-02-14T06:36:46;9.90;99.90
19017;DHT22;9641;51.494;6.670;2024-02-14T06:39:13;10.00;99.90
19017;DHT22;9641;51.494;6.670;2024-02-14T06:41:41;10.00;99.90
19017;DHT22;9641;51.494;6.670;2024-02-14T06:44:09;10.00;99.90
19017;DHT22;9641;51.494;6.670;2024-02-14T06:46:36;10.00;99.90
19017;DHT22;9641;51.494;6.670;2024-02-14T06:49:03;10.00;99.90
19017;DHT22;9641;51.494;6.670;2024-02-14T06:51:30;10.00;99.90
19017;DHT22;9641;51.494;6.670;2024-02-14T06:53:57;10.00;99.90
19017;DHT22;9641;51.494;6.670;2024-02-14T06:56:24;10.10;99.90
19017;DHT22;9641;51.494;6.670;2024-02-14T06:58:52;10.10;99.90
19017;DHT22;9641;51.494;6.670;2024-02-14T07:01:25;10.10;99.90
19017;DHT22;9641;51.494;6.670;2024-02-14T07:03:52;10.00;99.90
19017;DHT22;9641;51.494;6.670;2024-02-14T07:06:19;10.10;99.90
19017;DHT22;9641;51.494;6.670;2024-02-14T07:08:46;10.10;99.90
19017;DHT22;9641;51.494;6.670;2024-02-14T07:11:14;10.10;99.90
19017;DHT22;9641;51.494;6.670;2024-02-14T07:13:42;10.10;99.90
19017;DHT22;9641;51.494;6.670;2024-02-14T07:16:10;10.10;99.90
19017;DHT22;9641;51.494;6.670;2024-02-14T07:18:37;10.20;99.90
19017;DHT22;9641;51.494;6.670;2024-02-14T07:21:05;10.10;99.90
19017;DHT22;9641;51.494;6.670;2024-02-14T07:23:34;10.10;99.90
19017;DHT22;9641;51.494;6.670;2024-02-14T07:26:01;10.20;99.90
19017;DHT22;9641;51.494;6.670;2024-02-14T07:28:29;10.20;99.90
19017;DHT22;9641;51.494;6.670;2024-02-14T07:30:56;10.10;99.90
19017;DHT22;9641;51.494;6.670;2024-02-14T07:33:24;10.10;99.90
19017;DHT22;9641;51.494;6.670;2024-02-14T07:35:51;10.10;99.90
19017;DHT22;9641;51.494;6.670;2024-02-14T07:38:17;10.10;99.90
19017;DHT22;9641;51.494;6.670;2024-02-14T07:40:44;10.10;99.90
19017;DHT22;9641;51.494;6.670;2024-02-14T07:43:11;10.10;99.90
19017;DHT22;9641;51.494;6.670;2024-02-14T07:45:38;10.20;99.90
19017;DHT22;9641;51.494;6.670;2024-02-14T07:48:05;10.20;99.90
19017;DHT22;9641;51.494;6.670;2024-02-14T07:50:34;10.30;99.90
19017;DHT22;9641;51.494;6.670;2024-02-14T07:53:03;10.30;99.90
19017;DHT22;9641;51.494;6.670;2024-02-14T07:55:29;10.40;99.90
19017;DHT22;9641;51.494;6.670;2024-02-14T07:57:56;10.50;99.90
19017;DHT22;9641;51.494;6.670;2024-02-14T08:00:25;10.60;99.90
19017;DHT22;9641;51.494;6.670;2024-02-14T08:02:52;10.60;99.90
19017;DHT22;9641;51.494;6.670;2024-02-14T08:05:19;10.60;99.90
19017;DHT22;9641;51.494;6.670;2024-02-14T08:07:47;10.70;99.90
19017;DHT22;9641;51.494;6.670;2024-02-14T08:10:14;10.80;99.90
19017;DHT22;9641;51.494;6.670;2024-02-14T08:12:41;10.80;99.90
19017;DHT22;9641;51.494;6.670;2024-02-14T08:15:09;10.90;99.90
19017;DHT22;9641;51.494;6.670;2024-02-14T08:17:36;11.00;99.90
19017;DHT22;9641;51.494;6.670;2024-02-14T08:20:05;11.00;99.90
19017;DHT22;9641;51.494;6.670;2024-02-14T08:22:32;11.00;99.90
19017;DHT22;9641;51.494;6.670;2024-02-14T08:25:01;11.20;99.90
19017;DHT22;9641;51.494;6.670;2024-02-14T08:27:28;11.20;99.90
19017;DHT22;9641;51.494;6.670;2024-02-14T08:29:57;11.10;99.90
19017;DHT22;9641;51.494;6.670;2024-02-14T08:32:24;11.10;99.90
19017;DHT22;9641;51.494;6.670;2024-02-14T08:34:50;11.00;99.90
19017;DHT22;9641;51.494;6.670;2024-02-14T08:37:17;10.90;99.90
19017;DHT22;9641;51.494;6.670;2024-02-14T08:39:44;10.90;99.90
19017;DHT22;9641;51.494;6.670;2024-02-14T08:42:12;11.00;99.90
19017;DHT22;9641;51.494;6.670;2024-02-14T08:44:39;11.00;99.90
19017;DHT22;9641;51.494;6.670;2024-02-14T08:47:06;11.00;99.90
19017;DHT22;9641;51.494;6.670;2024-02-14T08:49:34;11.10;99.90
19017;DHT22;9641;51.494;6.670;2024-02-14T08:52:02;11.10;99.90
19017;DHT22;9641;51.494;6.670;2024-02-14T08:54:29;11.10;99.90
19017;DHT22;9641;51.494;6.670;2024-02-14T08:56:58;11.00;99.90
19017;DHT22;9641;51.494;6.670;2024-02-14T08:59:26;10.90;99.90
19017;DHT22;9641;51.494;6.670;2024-02-14T09:01:53;10.80;99.90
19017;DHT22;9641;51.494;6.670;2024-02-14T09:04:22;10.70;99.90
19017;DHT22;9641;51.494;6.670;2024-02-14T09:06:49;10.70;99.90
19017;DHT22;9641;51.494;6.670;2024-02-14T09:09:16;10.70;99.90
19017;DHT22;9641;51.494;6.670;2024-02-14T09:11:44;10.70;99.90
19017;DHT22;9641;51.494;6.670;2024-02-14T09:14:11;10.70;99.90
19017;DHT22;9641;51.494;6.670;2024-02-14T09:16:40;10.70;99.90
19017;DHT22;9641;51.494;6.670;2024-02-14T09:19:06;10.80;99.90
19017;DHT22;9641;51.494;6.670;2024-02-14T09:21:35;10.80;99.90
19017;DHT22;9641;51.494;6.670;2024-02-14T09:24:02;10.80;99.90
19017;DHT22;9641;51.494;6.670;2024-02-14T09:26:29;10.90;99.90
19017;DHT22;9641;51.494;6.670;2024-02-14T09:28:56;10.80;99.90
19017;DHT22;9641;51.494;6.670;2024-02-14T09:31:23;10.90;99.90
19017;DHT22;9641;51.494;6.670;2024-02-14T09:33:51;10.90;99.90
19017;DHT22;9641;51.494;6.670;2024-02-14T09:36:22;10.90;99.90
19017;DHT22;9641;51.494;6.670;2024-02-14T09:38:50;11.00;99.90
19017;DHT22;9641;51.494;6.670;2024-02-14T09:41:25;11.10;99.90
19017;DHT22;9641;51.494;6.670;2024-02-14T09:43:54;11.20;99.90
19017;DHT22;9641;51.494;6.670;2024-02-14T09:46:24;11.30;99.90
19017;DHT22;9641;51.494;6.670;2024-02-14T09:48:53;11.40;99.90
19017;DHT22;9641;51.494;6.670;2024-02-14T09:51:22;11.50;99.90
19017;DHT22;9641;51.494;6.670;2024-02-14T09:53:51;11.60;99.90
19017;DHT22;9641;51.494;6.670;2024-02-14T09:56:20;11.70;99.90
19017;DHT22;9641;51.494;6.670;2024-02-14T09:58:49;11.80;99.90
19017;DHT22;9641;51.494;6.670;2024-02-14T10:01:21;11.90;99.90
19017;DHT22;9641;51.494;6.670;2024-02-14T10:03:49;11.90;99.90
19017;DHT22;9641;51.494;6.670;2024-02-14T10:06:18;11.90;99.90
19017;DHT22;9641;51.494;6.670;2024-02-14T10:08:46;12.10;99.90
19017;DHT22;9641;51.494;6.670;2024-02-14T10:11:14;12.20;99.90
19017;DHT22;9641;51.494;6.670;2024-02-14T10:13:44;12.20;99.90
19017;DHT22;9641;51.494;6.670;2024-02-14T10:16:12;12.20;99.90
19017;DHT22;9641;51.494;6.670;2024-02-14T10:18:39;12.10;99.90
19017;DHT22;9641;51.494;6.670;2024-02-14T10:21:08;12.10;99.90
19017;DHT22;9641;51.494;6.670;2024-02-14T10:23:36;12.00;99.90
19017;DHT22;9641;51.494;6.670;2024-02-14T10:26:04;12.10;99.90
19017;DHT22;9641;51.494;6.670;2024-02-14T10:28:32;12.10;99.90
19017;DHT22;9641;51.494;6.670;2024-02-14T10:31:00;12.20;99.90
19017;DHT22;9641;51.494;6.670;2024-02-14T10:33:28;12.20;99.90
19017;DHT22;9641;51.494;6.670;2024-02-14T10:35:57;12.20;99.90
19017;DHT22;9641;51.494;6.670;2024-02-14T10:38:24;11.90;99.90
19017;DHT22;9641;51.494;6.670;2024-02-14T10:40:54;11.80;99.90
19017;DHT22;9641;51.494;6.670;2024-02-14T10:43:22;11.80;99.90
19017;DHT22;9641;51.494;6.670;2024-02-14T10:45:52;11.90;99.90
19017;DHT22;9641;51.494;6.670;2024-02-14T10:48:21;11.90;99.90
19017;DHT22;9641;51.494;6.670;2024-02-14T10:50:53;11.90;99.90
19017;DHT22;9641;51.494;6.670;2024-02-14T10:53:20;12.10;99.90
19017;DHT22;9641;51.494;6.670;2024-02-14T10:55:49;12.40;99.90
19017;DHT22;9641;51.494;6.670;2024-02-14T10:58:20;12.50;99.90
19017;DHT22;9641;51.494;6.670;2024-02-14T11:00:47;12.50;99.90
19017;DHT22;9641;51.494;6.670;2024-02-14T11:03:14;12.60;99.90
19017;DHT22;9641;51.494;6.670;2024-02-14T11:05:43;12.60;99.90
19017;DHT22;9641;51.494;6.670;2024-02-14T11:08:14;12.50;99.90
19017;DHT22;9641;51.494;6.670;2024-02-14T11:10:41;12.40;99.90
19017;DHT22;9641;51.494;6.670;2024-02-14T11:13:12;12.50;99.90
19017;DHT22;9641;51.494;6.670;2024-02-14T11:15:44;12.50;99.90
19017;DHT22;9641;51.494;6.670;2024-02-14T11:18:12;12.50;99.90
19017;DHT22;9641;51.494;6.670;2024-02-14T11:20:39;12.50;99.90
19017;DHT22;9641;51.494;6.670;2024-02-14T11:23:08;12.50;99.90
19017;DHT22;9641;51.494;6.670;2024-02-14T11:25:37;12.70;99.90
19017;DHT22;9641;51.494;6.670;2024-02-14T11:28:13;12.80;99.90
19017;DHT22;9641;51.494;6.670;2024-02-14T11:30:42;12.70;99.90
19017;DHT22;9641;51.494;6.670;2024-02-14T11:33:16;12.70;99.90
19017;DHT22;9641;51.494;6.670;2024-02-14T11:35:46;12.70;99.90
19017;DHT22;9641;51.494;6.670;2024-02-14T11:38:13;12.70;99.90
19017;DHT22;9641;51.494;6.670;2024-02-14T11:40:40;12.70;99.90
19017;DHT22;9641;51.494;6.670;2024-02-14T11:43:11;12.80;99.90
19017;DHT22;9641;51.494;6.670;2024-02-14T11:45:38;12.80;99.90
19017;DHT22;9641;51.494;6.670;2024-02-14T11:48:09;12.90;99.90
19017;DHT22;9641;51.494;6.670;2024-02-14T11:50:39;13.00;99.90
19017;DHT22;9641;51.494;6.670;2024-02-14T11:53:06;13.10;99.90
19017;DHT22;9641;51.494;6.670;2024-02-14T11:55:36;13.20;99.90
19017;DHT22;9641;51.494;6.670;2024-02-14T11:58:06;13.30;99.90
19017;DHT22;9641;51.494;6.670;2024-02-14T12:00:33;13.50;99.90
19017;DHT22;9641;51.494;6.670;2024-02-14T12:03:05;13.50;99.90
19017;DHT22;9641;51.494;6.670;2024-02-14T12:05:34;13.40;99.90
19017;DHT22;9641;51.494;6.670;2024-02-14T12:08:03;13.20;99.90
19017;DHT22;9641;51.494;6.670;2024-02-14T12:10:35;13.00;99.90
19017;DHT22;9641;51.494;6.670;2024-02-14T12:13:07;12.90;99.90
19017;DHT22;9641;51.494;6.670;2024-02-14T12:15:40;12.90;99.90
19017;DHT22;9641;51.494;6.670;2024-02-14T12:18:08;12.90;99.90
19017;DHT22;9641;51.494;6.670;2024-02-14T12:20:37;12.90;99.90
19017;DHT22;9641;51.494;6.670;2024-02-14T12:23:05;12.90;99.90
19017;DHT22;9641;51.494;6.670;2024-02-14T12:25:32;13.00;99.90
19017;DHT22;9641;51.494;6.670;2024-02-14T12:28:00;13.00;99.90
19017;DHT22;9641;51.494;6.670;2024-02-14T12:30:42;13.10;99.90
19017;DHT22;9641;51.494;6.670;2024-02-14T12:33:11;13.20;99.90
19017;DHT22;9641;51.494;6.670;2024-02-14T12:35:42;13.30;99.90
19017;DHT22;9641;51.494;6.670;2024-02-14T12:38:10;13.20;99.90
19017;DHT22;9641;51.494;6.670;2024-02-14T12:40:37;13.00;99.90
19017;DHT22;9641;51.494;6.670;2024-02-14T12:43:04;13.00;99.90
19017;DHT22;9641;51.494;6.670;2024-02-14T12:45:32;12.90;99.90
19017;DHT22;9641;51.494;6.670;2024-02-14T12:47:59;13.00;99.90
19017;DHT22;9641;51.494;6.670;2024-02-14T12:50:26;13.00;99.90
19017;DHT22;9641;51.494;6.670;2024-02-14T12:52:55;13.00;99.90
19017;DHT22;9641;51.494;6.670;2024-02-14T12:55:23;13.00;99.90
19017;DHT22;9641;51.494;6.670;2024-02-14T12:57:51;13.00;99.90
19017;DHT22;9641;51.494;6.670;2024-02-14T13:00:19;13.00;99.90
19017;DHT22;9641;51.494;6.670;2024-02-14T13:02:48;13.00;99.90
19017;DHT22;9641;51.494;6.670;2024-02-14T13:05:15;13.00;99.90
19017;DHT22;9641;51.494;6.670;2024-02-14T13:07:43;12.90;99.90
19017;DHT22;9641;51.494;6.670;2024-02-14T13:10:12;13.00;99.90
19017;DHT22;9641;51.494;6.670;2024-02-14T13:12:39;12.90;99.90
19017;DHT22;9641;51.494;6.670;2024-02-14T13:15:09;13.00;99.90
19017;DHT22;9641;51.494;6.670;2024-02-14T13:17:36;12.90;99.90
19017;DHT22;9641;51.494;6.670;2024-02-14T13:20:05;12.90;99.90
19017;DHT22;9641;51.494;6.670;2024-02-14T13:22:32;13.00;99.90
19017;DHT22;9641;51.494;6.670;2024-02-14T13:25:00;13.00;99.90
19017;DHT22;9641;51.494;6.670;2024-02-14T13:27:30;13.00;99.90
19017;DHT22;9641;51.494;6.670;2024-02-14T13:29:58;13.00;99.90
19017;DHT22;9641;51.494;6.670;2024-02-14T13:32:26;13.00;99.90
19017;DHT22;9641;51.494;6.670;2024-02-14T13:34:54;13.00;99.90
19017;DHT22;9641;51.494;6.670;2024-02-14T13:37:22;13.00;99.90
19017;DHT22;9641;51.494;6.670;2024-02-14T13:39:50;12.90;99.90
19017;DHT22;9641;51.494;6.670;2024-02-14T13:42:18;12.70;99.90
19017;DHT22;9641;51.494;6.670;2024-02-14T13:44:47;12.70;99.90
19017;DHT22;9641;51.494;6.670;2024-02-14T13:47:17;12.60;99.90
19017;DHT22;9641;51.494;6.670;2024-02-14T13:49:45;12.50;99.90
19017;DHT22;9641;51.494;6.670;2024-02-14T13:52:13;12.40;99.90
19017;DHT22;9641;51.494;6.670;2024-02-14T13:54:41;12.30;99.90
19017;DHT22;9641;51.494;6.670;2024-02-14T13:57:10;12.20;99.90
19017;DHT22;9641;51.494;6.670;2024-02-14T13:59:38;12.20;99.90
19017;DHT22;9641;51.494;6.670;2024-02-14T14:02:07;12.20;99.90
19017;DHT22;9641;51.494;6.670;2024-02-14T14:04:36;12.20;99.90
19017;DHT22;9641;51.494;6.670;2024-02-14T14:07:04;12.10;99.90
19017;DHT22;9641;51.494;6.670;2024-02-14T14:09:31;12.10;99.90
19017;DHT22;9641;51.494;6.670;2024-02-14T14:12:01;12.00;99.90
19017;DHT22;9641;51.494;6.670;2024-02-14T14:14:28;12.00;99.90
19017;DHT22;9641;51.494;6.670;2024-02-14T14:16:56;12.00;99.90
19017;DHT22;9641;51.494;6.670;2024-02-14T14:19:26;11.90;99.90
19017;DHT22;9641;51.494;6.670;2024-02-14T14:21:54;11.90;99.90
19017;DHT22;9641;51.494;6.670;2024-02-14T14:24:23;11.90;99.90
19017;DHT22;9641;51.494;6.670;2024-02-14T14:26:52;11.90;99.90
19017;DHT22;9641;51.494;6.670;2024-02-14T14:29:20;11.90;99.90
19017;DHT22;9641;51.494;6.670;2024-02-14T14:31:48;11.90;99.90
19017;DHT22;9641;51.494;6.670;2024-02-14T14:34:16;11.90;99.90
19017;DHT22;9641;51.494;6.670;2024-02-14T14:36:49;11.90;99.90
19017;DHT22;9641;51.494;6.670;2024-02-14T14:39:20;11.90;99.90
19017;DHT22;9641;51.494;6.670;2024-02-14T14:41:49;11.90;99.90
19017;DHT22;9641;51.494;6.670;2024-02-14T14:44:19;11.90;99.90
19017;DHT22;9641;51.494;6.670;2024-02-14T14:46:47;11.90;99.90
19017;DHT22;9641;51.494;6.670;2024-02-14T14:49:15;11.90;99.90
19017;DHT22;9641;51.494;6.670;2024-02-14T14:51:44;11.90;99.90
19017;DHT22;9641;51.494;6.670;2024-02-14T14:54:14;11.90;99.90
19017;DHT22;9641;51.494;6.670;2024-02-14T14:56:42;11.90;99.90
19017;DHT22;9641;51.494;6.670;2024-02-14T14:59:11;11.90;99.90
19017;DHT22;9641;51.494;6.670;2024-02-14T15:01:40;11.80;99.90
19017;DHT22;9641;51.494;6.670;2024-02-14T15:04:07;11.80;99.90
19017;DHT22;9641;51.494;6.670;2024-02-14T15:06:35;11.80;99.90
19017;DHT22;9641;51.494;6.670;2024-02-14T15:09:03;11.80;99.90
19017;DHT22;9641;51.494;6.670;2024-02-14T15:11:34;11.90;99.90
19017;DHT22;9641;51.494;6.670;2024-02-14T15:14:02;11.90;99.90
19017;DHT22;9641;51.494;6.670;2024-02-14T15:16:33;11.90;99.90
19017;DHT22;9641;51.494;6.670;2024-02-14T15:19:02;11.90;99.90
19017;DHT22;9641;51.494;6.670;2024-02-14T15:21:29;11.90;99.90
19017;DHT22;9641;51.494;6.670;2024-02-14T15:23:57;11.90;99.90
19017;DHT22;9641;51.494;6.670;2024-02-14T15:26:24;11.90;99.90
19017;DHT22;9641;51.494;6.670;2024-02-14T15:28:52;11.90;99.90
19017;DHT22;9641;51.494;6.670;2024-02-14T15:31:40;11.90;99.90
19017;DHT22;9641;51.494;6.670;2024-02-14T15:34:24;11.90;99.90
19017;DHT22;9641;51.494;6.670;2024-02-14T15:36:55;11.80;99.90
19017;DHT22;9641;51.494;6.670;2024-02-14T15:39:22;11.80;99.90
19017;DHT22;9641;51.494;6.670;2024-02-14T15:41:49;11.80;99.90
19017;DHT22;9641;51.494;6.670;2024-02-14T15:44:17;11.80;99.90
19017;DHT22;9641;51.494;6.670;2024-02-14T15:46:44;11.80;99.90
19017;DHT22;9641;51.494;6.670;2024-02-14T15:49:14;11.90;99.90
19017;DHT22;9641;51.494;6.670;2024-02-14T15:51:41;11.80;99.90
19017;DHT22;9641;51.494;6.670;2024-02-14T15:54:09;11.90;99.90